Time;durP1;ratioP1;P1;durP2;ratioP2;P2;SDS_P1;SDS_P2;PMS_P1;PMS_P2;Temp;Humidity;BMP_temperature;BMP_pressure;BME280_temperature;BME280_humidity;BME280_pressure;Samples;Min_cycle;Max_cycle;Signal;HPM_P1;HPM_P2
2023/03/25 00:00:14;;;;;;;8.02;2.03;;;8.90;99.90;;;;;;5151756;27;20034;-75
2023/03/25 00:02:40;;;;;;;8.70;2.50;;;8.90;99.90;;;;;;5150476;27;20122;-74
2023/03/25 00:05:06;;;;;;;7.05;1.67;;;8.90;99.90;;;;;;5151712;27;20102;-74
2023/03/25 00:07:32;;;;;;;6.43;1.95;;;8.80;99.90;;;;;;5151275;27;20035;-78
2023/03/25 00:09:58;;;;;;;3.17;1.30;;;8.80;99.90;;;;;;5151728;27;20023;-74
2023/03/25 00:12:25;;;;;;;5.45;1.67;;;8.80;99.90;;;;;;5151864;27;20027;-75
2023/03/25 00:14:53;;;;;;;6.47;1.77;;;8.80;99.90;;;;;;5151125;27;20030;-75
2023/03/25 00:17:27;;;;;;;5.70;2.15;;;8.70;99.90;;;;;;5133649;27;20098;-76
2023/03/25 00:19:59;;;;;;;8.38;2.38;;;8.70;99.90;;;;;;5151385;27;20026;-75
2023/03/25 00:22:25;;;;;;;4.97;2.10;;;8.70;99.90;;;;;;5154159;27;20054;-75
2023/03/25 00:24:51;;;;;;;7.22;1.90;;;8.70;99.90;;;;;;5155391;27;20035;-75
2023/03/25 00:27:17;;;;;;;13.65;2.75;;;8.70;99.90;;;;;;5155877;27;20047;-75
2023/03/25 00:29:44;;;;;;;9.95;2.78;;;8.70;99.90;;;;;;5154827;27;20375;-75
2023/03/25 00:32:11;;;;;;;12.82;2.28;;;8.70;99.90;;;;;;5155888;27;20106;-75
2023/03/25 00:34:40;;;;;;;11.82;2.53;;;8.80;99.90;;;;;;5154700;27;20392;-76
2023/03/25 00:37:08;;;;;;;15.05;2.63;;;8.80;99.90;;;;;;5155396;27;20031;-76
2023/03/25 00:39:34;;;;;;;10.55;2.60;;;8.80;99.90;;;;;;5155042;27;20410;-79
2023/03/25 00:42:00;;;;;;;15.00;2.78;;;8.80;99.90;;;;;;5155217;27;20110;-73
2023/03/25 00:44:27;;;;;;;10.90;2.13;;;8.80;99.90;;;;;;5136784;27;20038;-74
2023/03/25 00:46:52;;;;;;;11.65;2.40;;;8.90;99.90;;;;;;5154772;27;20035;-74
2023/03/25 00:49:18;;;;;;;17.27;2.55;;;8.90;99.90;;;;;;5155424;27;20087;-74
2023/03/25 00:51:44;;;;;;;10.35;2.45;;;8.80;99.90;;;;;;5154825;27;20054;-74
2023/03/25 00:54:10;;;;;;;13.35;2.50;;;8.80;99.90;;;;;;5155344;27;20463;-75
2023/03/25 00:56:36;;;;;;;14.38;2.83;;;8.80;99.90;;;;;;5154938;27;20148;-78
2023/03/25 00:59:02;;;;;;;10.07;2.95;;;8.80;99.90;;;;;;5155162;27;20042;-75
2023/03/25 01:01:28;;;;;;;7.25;2.13;;;8.80;99.90;;;;;;5134453;27;20095;-75
2023/03/25 01:03:59;;;;;;;9.35;1.90;;;8.70;99.90;;;;;;5115010;27;20038;-76
2023/03/25 01:06:33;;;;;;;6.47;1.70;;;8.70;99.90;;;;;;5134642;27;20484;-75
2023/03/25 01:09:01;;;;;;;5.95;1.55;;;8.70;99.90;;;;;;5133702;27;20157;-75
2023/03/25 01:11:29;;;;;;;8.38;1.60;;;8.70;99.90;;;;;;5134016;27;20035;-74
2023/03/25 01:13:58;;;;;;;7.43;1.52;;;8.60;99.90;;;;;;5133651;27;20417;-75
2023/03/25 01:16:24;;;;;;;5.03;1.58;;;8.60;99.90;;;;;;5115843;27;20122;-75
2023/03/25 01:18:50;;;;;;;7.05;1.85;;;8.60;99.90;;;;;;5133487;27;20464;-74
2023/03/25 01:21:16;;;;;;;5.55;1.50;;;8.50;99.90;;;;;;5133394;27;20022;-74
2023/03/25 01:23:42;;;;;;;8.40;1.67;;;8.50;99.90;;;;;;5114735;27;20422;-75
2023/03/25 01:26:08;;;;;;;8.93;1.75;;;8.50;99.90;;;;;;5133832;27;20095;-74
2023/03/25 01:28:34;;;;;;;8.55;1.38;;;8.40;99.90;;;;;;5133731;27;20361;-74
2023/03/25 01:31:05;;;;;;;6.10;1.38;;;8.30;99.90;;;;;;5133142;27;20147;-75
2023/03/25 01:33:31;;;;;;;8.77;1.60;;;8.30;99.90;;;;;;5133112;27;20023;-75
2023/03/25 01:35:57;;;;;;;5.40;1.27;;;8.30;99.90;;;;;;5132718;27;20481;-74
2023/03/25 01:38:23;;;;;;;10.65;1.95;;;8.20;99.90;;;;;;5133743;27;20019;-73
2023/03/25 01:40:51;;;;;;;7.90;1.67;;;8.20;99.90;;;;;;5132827;27;20448;-75
2023/03/25 01:43:17;;;;;;;9.23;2.28;;;8.10;99.90;;;;;;5133367;27;20031;-75
2023/03/25 01:45:44;;;;;;;2.88;1.48;;;8.10;99.90;;;;;;5133073;27;20473;-76
2023/03/25 01:48:37;;;;;;;7.70;2.03;;;8.10;99.90;;;;;;5133314;27;20019;-75
2023/03/25 01:51:16;;;;;;;6.80;1.35;;;8.10;99.90;;;;;;5122054;27;20043;-76
2023/03/25 01:53:42;;;;;;;5.25;1.33;;;8.00;99.90;;;;;;5131945;27;20384;-75
2023/03/25 01:56:12;;;;;;;6.40;1.23;;;8.00;99.90;;;;;;5133161;27;20034;-74
2023/03/25 01:58:38;;;;;;;7.00;1.40;;;7.90;99.90;;;;;;5133273;27;20034;-74
2023/03/25 02:01:05;;;;;;;3.15;1.50;;;8.00;99.90;;;;;;5132171;27;20087;-74
2023/03/25 02:03:35;;;;;;;7.18;1.35;;;7.90;99.90;;;;;;5133073;27;20059;-75
2023/03/25 02:06:08;;;;;;;5.35;1.80;;;7.90;99.90;;;;;;5132386;27;20111;-74
2023/03/25 02:08:38;;;;;;;5.22;1.33;;;7.90;99.90;;;;;;5132859;27;20052;-75
2023/03/25 02:11:08;;;;;;;8.88;1.58;;;8.00;99.90;;;;;;5132108;27;20031;-75
2023/03/25 02:13:38;;;;;;;3.95;1.27;;;8.00;99.90;;;;;;5132640;27;20056;-74
2023/03/25 02:16:31;;;;;;;7.97;1.70;;;8.00;99.90;;;;;;5132044;27;20345;-74
2023/03/25 02:19:15;;;;;;;9.23;1.50;;;8.10;99.90;;;;;;5131978;27;20039;-75
2023/03/25 02:22:00;;;;;;;5.32;1.48;;;8.00;99.90;;;;;;5132653;27;20046;-77
2023/03/25 02:24:52;;;;;;;5.25;1.38;;;8.00;99.90;;;;;;5114128;27;20467;-74
2023/03/25 02:27:32;;;;;;;5.65;1.40;;;8.00;99.90;;;;;;5132858;27;20034;-75
2023/03/25 02:30:05;;;;;;;8.00;1.65;;;8.00;99.90;;;;;;5131848;27;20467;-74
2023/03/25 02:32:58;;;;;;;5.15;1.50;;;8.00;99.90;;;;;;5132672;27;20023;-75
2023/03/25 02:36:04;;;;;;;7.50;1.48;;;8.00;99.90;;;;;;5132783;27;20027;-76
2023/03/25 02:38:42;;;;;;;6.45;1.63;;;8.00;99.90;;;;;;5132292;27;20028;-76
2023/03/25 02:41:16;;;;;;;5.18;1.40;;;8.00;99.90;;;;;;5131630;27;20022;-76
2023/03/25 02:44:02;;;;;;;4.82;1.27;;;8.00;99.90;;;;;;5131399;27;20504;-78
2023/03/25 02:46:30;;;;;;;7.28;1.48;;;7.90;99.90;;;;;;5132181;27;20100;-75
2023/03/25 02:49:12;;;;;;;5.55;1.30;;;7.90;99.90;;;;;;5113200;27;20519;-76
2023/03/25 02:52:04;;;;;;;7.50;1.50;;;7.90;99.90;;;;;;5132387;27;20103;-75
2023/03/25 02:54:32;;;;;;;7.55;1.48;;;7.90;99.90;;;;;;5079577;27;20045;-76
2023/03/25 02:56:59;;;;;;;4.00;1.02;;;7.80;99.90;;;;;;5131407;27;20420;-75
2023/03/25 02:59:28;;;;;;;11.65;1.33;;;7.80;99.90;;;;;;5131733;27;20034;-75
2023/03/25 03:01:57;;;;;;;6.30;1.30;;;7.80;99.90;;;;;;5131313;27;20105;-75
2023/03/25 03:04:24;;;;;;;5.47;1.30;;;7.80;99.90;;;;;;5131469;27;20464;-75
2023/03/25 03:06:52;;;;;;;7.45;1.48;;;7.70;99.90;;;;;;5131334;27;20095;-75
2023/03/25 03:09:33;;;;;;;7.25;1.52;;;7.70;99.90;;;;;;5131899;27;20049;-76
2023/03/25 03:12:06;;;;;;;7.50;1.77;;;7.70;99.90;;;;;;5131659;27;20027;-75
2023/03/25 03:14:32;;;;;;;;;;;7.70;99.90;;;;;;5132602;27;20058;-75
2023/03/25 03:17:28;;;;;;;9.13;2.40;;;7.60;99.90;;;;;;5131804;27;19919;-76
2023/03/25 03:20:18;;;;;;;6.88;1.42;;;7.60;99.90;;;;;;5131173;27;20049;-76
2023/03/25 03:23:00;;;;;;;16.20;12.75;;;7.60;99.90;;;;;;5131997;27;20489;-76
2023/03/25 03:25:41;;;;;;;10.55;1.65;;;7.50;99.90;;;;;;5113601;27;20042;-74
2023/03/25 03:28:23;;;;;;;10.75;1.50;;;7.50;99.90;;;;;;5131446;27;20026;-74
2023/03/25 03:31:16;;;;;;;6.73;1.53;;;7.50;99.90;;;;;;5112513;27;20470;-75
2023/03/25 03:33:46;;;;;;;;;;;7.50;99.90;;;;;;5132153;27;20054;-74
2023/03/25 03:36:16;;;;;;;6.07;1.35;;;7.50;99.90;;;;;;5113111;28;19903;-74
2023/03/25 03:39:00;;;;;;;6.78;1.40;;;7.50;99.90;;;;;;5113087;28;20035;-74
2023/03/25 03:41:28;;;;;;;7.00;1.58;;;7.40;99.90;;;;;;5113571;28;20023;-75
2023/03/25 03:44:03;;;;;;;7.70;2.15;;;7.40;99.90;;;;;;5132427;28;20024;-75
2023/03/25 03:46:44;;;;;;;9.52;1.65;;;7.40;99.90;;;;;;5132134;28;20050;-74
2023/03/25 03:49:18;;;;;;;7.32;1.60;;;7.40;99.90;;;;;;5131639;28;20027;-75
2023/03/25 03:52:04;;;;;;;10.32;1.40;;;7.40;99.90;;;;;;5131184;28;20022;-75
2023/03/25 03:54:36;;;;;;;6.25;1.55;;;7.40;99.90;;;;;;5131394;28;20099;-74
2023/03/25 03:57:08;;;;;;;7.32;1.80;;;7.40;99.90;;;;;;5134472;27;20027;-75
2023/03/25 03:59:44;;;;;;;5.88;1.27;;;7.30;99.90;;;;;;5135720;27;20035;-75
2023/03/25 04:02:39;;;;;;;10.88;1.83;;;7.30;99.90;;;;;;5116510;27;20019;-74
2023/03/25 04:05:10;;;;;;;7.57;1.70;;;7.30;99.90;;;;;;5132617;27;20055;-74
2023/03/25 04:07:41;;;;;;;10.13;1.70;;;7.30;99.90;;;;;;5116847;27;20122;-74
2023/03/25 04:10:28;;;;;;;6.37;1.60;;;7.30;99.90;;;;;;5134395;27;20035;-75
2023/03/25 04:12:57;;;;;;;8.88;1.42;;;7.30;99.90;;;;;;5134740;27;20027;-75
2023/03/25 04:15:23;;;;;;;7.57;1.40;;;7.30;99.90;;;;;;5134851;27;20034;-75
2023/03/25 04:17:49;;;;;;;9.77;1.27;;;7.30;99.90;;;;;;5135054;27;20034;-75
2023/03/25 04:20:22;;;;;;;4.15;1.25;;;7.30;99.90;;;;;;5134844;27;20027;-75
2023/03/25 04:22:50;;;;;;;6.95;1.33;;;7.20;99.90;;;;;;5134685;27;20386;-74
2023/03/25 04:25:16;;;;;;;4.82;1.40;;;7.30;99.90;;;;;;5134509;27;20042;-74
2023/03/25 04:27:44;;;;;;;8.40;1.05;;;7.20;99.90;;;;;;5134865;27;20019;-75
2023/03/25 04:30:13;;;;;;;5.40;1.10;;;7.20;99.90;;;;;;5134709;27;20119;-74
2023/03/25 04:32:39;;;;;;;6.45;1.00;;;7.20;99.90;;;;;;5134644;27;20460;-74
2023/03/25 04:35:05;;;;;;;7.47;1.15;;;7.20;99.90;;;;;;5134245;27;20020;-74
2023/03/25 04:37:32;;;;;;;5.63;1.27;;;7.20;99.90;;;;;;5134399;27;20023;-75
2023/03/25 04:40:00;;;;;;;7.35;1.50;;;7.20;99.90;;;;;;5134064;27;20495;-75
2023/03/25 04:42:31;;;;;;;9.38;1.23;;;7.10;99.90;;;;;;5115974;27;20072;-75
2023/03/25 04:44:57;;;;;;;6.65;1.40;;;7.10;99.90;;;;;;5133971;27;20126;-75
2023/03/25 04:47:24;;;;;;;6.25;1.45;;;7.10;99.90;;;;;;5134371;27;20118;-74
2023/03/25 04:49:50;;;;;;;8.00;1.33;;;7.10;99.90;;;;;;5134151;27;20441;-74
2023/03/25 04:52:16;;;;;;;5.50;1.10;;;7.10;99.90;;;;;;5134193;27;20055;-75
2023/03/25 04:54:43;;;;;;;5.15;1.67;;;7.10;99.90;;;;;;5115831;27;20027;-75
2023/03/25 04:57:09;;;;;;;7.30;1.20;;;7.20;99.90;;;;;;5133508;27;20035;-76
2023/03/25 04:59:35;;;;;;;7.97;1.48;;;7.20;99.90;;;;;;5134566;27;20121;-75
2023/03/25 05:02:04;;;;;;;5.75;1.40;;;7.20;99.90;;;;;;5133348;27;20027;-76
2023/03/25 05:04:31;;;;;;;6.95;1.42;;;7.30;99.90;;;;;;5134029;27;20379;-76
2023/03/25 05:06:57;;;;;;;10.38;2.03;;;7.30;99.90;;;;;;5132830;27;20023;-76
2023/03/25 05:09:22;;;;;;;9.27;1.60;;;7.40;99.90;;;;;;5115724;27;20023;-75
2023/03/25 05:11:50;;;;;;;8.60;1.55;;;7.40;99.90;;;;;;5134279;27;20027;-75
2023/03/25 05:14:19;;;;;;;8.32;1.67;;;7.50;99.90;;;;;;5133866;27;20153;-75
2023/03/25 05:16:46;;;;;;;6.40;1.67;;;7.50;99.90;;;;;;5133846;27;20102;-75
2023/03/25 05:19:13;;;;;;;9.50;1.88;;;7.60;99.90;;;;;;5115511;27;20465;-75
2023/03/25 05:21:39;;;;;;;14.25;1.88;;;7.60;99.90;;;;;;5115675;27;20451;-75
2023/03/25 05:24:10;;;;;;;12.90;1.88;;;7.60;99.90;;;;;;5133244;27;20059;-75
2023/03/25 05:26:38;;;;;;;13.02;2.33;;;7.60;99.90;;;;;;5133931;27;20450;-74
2023/03/25 05:29:09;;;;;;;10.15;2.72;;;7.60;99.90;;;;;;5133364;27;20053;-75
2023/03/25 05:31:35;;;;;;;13.65;2.40;;;7.70;99.90;;;;;;5134218;27;20034;-76
2023/03/25 05:34:05;;;;;;;14.30;2.33;;;7.70;99.90;;;;;;5133314;27;20058;-76
2023/03/25 05:36:31;;;;;;;9.35;2.75;;;7.70;99.90;;;;;;5133733;27;20053;-76
2023/03/25 05:38:58;;;;;;;10.63;1.88;;;7.70;99.90;;;;;;5133792;27;20051;-77
2023/03/25 05:41:31;;;;;;;8.48;1.95;;;7.80;99.90;;;;;;5133695;27;20055;-73
2023/03/25 05:44:00;;;;;;;11.38;1.70;;;7.80;99.90;;;;;;5133015;27;20208;-77
2023/03/25 05:46:30;;;;;;;8.85;1.90;;;7.80;99.90;;;;;;5133848;27;20034;-74
2023/03/25 05:48:56;;;;;;;19.05;2.30;;;7.80;99.90;;;;;;5133122;27;20058;-77
2023/03/25 05:51:24;;;;;;;10.10;2.35;;;7.80;99.90;;;;;;5133110;27;20023;-75
2023/03/25 05:53:50;;;;;;;9.77;2.38;;;7.80;99.90;;;;;;5133182;27;20058;-74
2023/03/25 05:56:18;;;;;;;6.05;1.83;;;7.70;99.90;;;;;;5132822;27;20455;-74
2023/03/25 05:58:44;;;;;;;9.35;1.77;;;7.70;99.90;;;;;;5133281;27;20122;-75
2023/03/25 06:01:12;;;;;;;9.68;1.70;;;7.70;99.90;;;;;;5132617;27;20028;-75
2023/03/25 06:03:39;;;;;;;12.40;1.95;;;7.70;99.90;;;;;;5132760;27;20126;-76
2023/03/25 06:06:12;;;;;;;15.65;2.20;;;7.60;99.90;;;;;;5132224;27;20097;-76
2023/03/25 06:08:40;;;;;;;12.38;1.73;;;7.60;99.90;;;;;;5133108;27;20031;-74
2023/03/25 06:11:12;;;;;;;8.88;1.73;;;7.60;99.90;;;;;;5132112;27;20484;-75
2023/03/25 06:13:39;;;;;;;14.05;2.05;;;7.60;99.90;;;;;;5133266;27;20031;-74
2023/03/25 06:16:07;;;;;;;18.85;2.15;;;7.50;99.90;;;;;;5132095;27;20052;-75
2023/03/25 06:18:34;;;;;;;12.80;2.70;;;7.60;99.90;;;;;;5132569;27;20058;-75
2023/03/25 06:21:00;;;;;;;11.05;2.30;;;7.60;99.90;;;;;;5133106;27;20449;-79
2023/03/25 06:23:26;;;;;;;20.48;2.25;;;7.70;99.90;;;;;;5133273;27;20135;-74
2023/03/25 06:25:53;;;;;;;9.00;1.88;;;7.80;99.90;;;;;;5133104;27;20058;-75
2023/03/25 06:28:19;;;;;;;11.70;2.10;;;7.80;99.90;;;;;;5132779;27;20460;-75
2023/03/25 06:30:46;;;;;;;10.57;1.85;;;7.80;99.90;;;;;;5132588;27;20102;-75
2023/03/25 06:33:12;;;;;;;10.38;1.70;;;7.90;99.90;;;;;;5132310;27;20023;-75
2023/03/25 06:35:42;;;;;;;11.10;1.50;;;7.90;99.90;;;;;;5132856;27;20041;-75
2023/03/25 06:38:09;;;;;;;9.02;1.55;;;8.00;99.90;;;;;;5132470;27;20034;-75
2023/03/25 06:40:38;;;;;;;9.63;2.22;;;8.10;99.90;;;;;;5132430;27;20023;-74
2023/03/25 06:43:05;;;;;;;9.98;2.08;;;8.10;99.90;;;;;;5131503;27;20035;-75
2023/03/25 06:45:32;;;;;;;8.32;2.30;;;8.20;99.90;;;;;;5132460;27;20027;-74
2023/03/25 06:47:58;;;;;;;8.82;1.60;;;8.30;99.90;;;;;;5132509;27;20027;-74
2023/03/25 06:50:24;;;;;;;6.55;1.60;;;8.30;99.90;;;;;;5131593;27;20030;-74
2023/03/25 06:52:50;;;;;;;7.93;2.17;;;8.40;99.90;;;;;;5132452;27;20023;-74
2023/03/25 06:55:16;;;;;;;6.80;1.35;;;8.40;99.90;;;;;;5131770;27;20421;-75
2023/03/25 06:57:42;;;;;;;12.43;1.88;;;8.50;99.90;;;;;;5132427;27;20038;-75
2023/03/25 07:00:10;;;;;;;8.48;1.58;;;8.50;99.90;;;;;;5131810;27;20031;-76
2023/03/25 07:02:37;;;;;;;7.18;1.60;;;8.50;99.90;;;;;;5132478;27;20049;-75
2023/03/25 07:05:03;;;;;;;6.68;1.58;;;8.50;99.90;;;;;;5132175;27;20032;-79
2023/03/25 07:07:29;;;;;;;11.05;2.05;;;8.50;99.90;;;;;;5132469;27;20031;-75
2023/03/25 07:09:55;;;;;;;9.00;1.42;;;8.60;99.90;;;;;;5132073;27;20034;-75
2023/03/25 07:12:21;;;;;;;8.85;1.55;;;8.60;99.90;;;;;;5131560;27;20028;-75
2023/03/25 07:14:56;;;;;;;6.57;1.67;;;8.60;99.90;;;;;;5132078;27;20031;-74
2023/03/25 07:17:22;;;;;;;8.68;1.63;;;8.70;99.90;;;;;;5131863;27;20035;-75
2023/03/25 07:19:49;;;;;;;11.00;2.15;;;8.70;99.90;;;;;;5132520;27;20062;-75
2023/03/25 07:22:15;;;;;;;8.13;1.63;;;8.70;99.90;;;;;;5130873;27;20059;-75
2023/03/25 07:24:41;;;;;;;9.98;1.20;;;8.80;99.90;;;;;;5131791;27;20031;-74
2023/03/25 07:27:11;;;;;;;7.85;1.33;;;8.80;99.90;;;;;;5131073;27;20027;-75
2023/03/25 07:29:37;;;;;;;11.18;2.88;;;8.80;99.90;;;;;;5131594;27;20039;-74
2023/03/25 07:32:02;;;;;;;9.77;3.95;;;8.90;99.90;;;;;;5131475;27;20077;-74
2023/03/25 07:34:28;;;;;;;9.55;1.63;;;9.00;99.90;;;;;;5112705;28;20419;-75
2023/03/25 07:36:54;;;;;;;7.65;1.60;;;9.20;99.90;;;;;;5131620;28;20073;-75
2023/03/25 07:39:20;;;;;;;6.55;1.33;;;9.30;99.90;;;;;;5130962;28;20420;-74
2023/03/25 07:41:46;;;;;;;5.50;1.63;;;9.40;99.90;;;;;;5131962;28;20027;-75
2023/03/25 07:44:14;;;;;;;6.68;1.30;;;9.60;99.90;;;;;;5130761;28;20038;-76
2023/03/25 07:46:39;;;;;;;6.80;1.42;;;9.70;99.90;;;;;;5131097;28;20464;-75
2023/03/25 07:49:05;;;;;;;9.48;1.48;;;9.70;99.90;;;;;;5131338;28;20030;-78
2023/03/25 07:51:33;;;;;;;7.90;1.92;;;9.80;99.90;;;;;;5131388;28;20451;-75
2023/03/25 07:53:59;;;;;;;8.65;1.40;;;9.80;99.90;;;;;;5112801;28;20031;-75
2023/03/25 07:56:24;;;;;;;5.15;0.80;;;9.80;99.90;;;;;;5130926;28;20039;-75
2023/03/25 07:58:50;;;;;;;4.28;0.90;;;9.90;99.90;;;;;;5131306;28;20042;-75
2023/03/25 08:01:16;;;;;;;3.33;0.98;;;10.00;99.90;;;;;;5130932;28;20074;-75
2023/03/25 08:03:41;;;;;;;4.15;1.40;;;10.00;99.90;;;;;;5131238;28;20359;-75
2023/03/25 08:06:08;;;;;;;9.05;1.58;;;10.10;99.90;;;;;;5130696;28;20027;-79
2023/03/25 08:08:34;;;;;;;2.95;0.95;;;10.20;99.90;;;;;;5131439;28;20441;-75
2023/03/25 08:11:00;;;;;;;4.00;1.10;;;10.30;99.90;;;;;;5131591;28;20068;-75
2023/03/25 08:13:26;;;;;;;4.53;1.02;;;10.40;99.90;;;;;;5131089;28;20100;-76
2023/03/25 08:15:52;;;;;;;5.85;1.33;;;10.50;99.90;;;;;;5131819;28;20030;-75
2023/03/25 08:18:18;;;;;;;5.65;1.23;;;10.50;99.90;;;;;;5130912;28;20028;-76
2023/03/25 08:20:44;;;;;;;7.30;1.20;;;10.60;99.90;;;;;;5131693;28;20026;-76
2023/03/25 08:23:11;;;;;;;8.13;1.80;;;10.60;99.90;;;;;;5130475;27;20043;-78
2023/03/25 08:25:39;;;;;;;7.35;1.38;;;10.50;99.90;;;;;;5112875;28;20035;-77
2023/03/25 08:28:05;;;;;;;6.32;1.25;;;10.50;99.90;;;;;;5131128;28;20031;-76
2023/03/25 08:30:37;;;;;;;4.47;1.40;;;10.40;99.90;;;;;;5129579;28;20479;-76
2023/03/25 08:33:07;;;;;;;6.68;1.33;;;10.60;99.90;;;;;;5130955;28;20027;-76
2023/03/25 08:35:35;;;;;;;7.07;1.48;;;10.70;99.90;;;;;;5130725;28;20379;-76
2023/03/25 08:38:04;;;;;;;8.20;1.77;;;10.80;99.90;;;;;;5130536;28;20108;-76
2023/03/25 08:40:31;;;;;;;7.05;1.52;;;10.80;99.90;;;;;;5130121;28;20095;-75
2023/03/25 08:42:57;;;;;;;5.88;1.20;;;10.80;99.90;;;;;;5132540;27;20035;-76
2023/03/25 08:45:23;;;;;;;7.80;1.50;;;10.70;99.90;;;;;;5133226;27;20027;-76
2023/03/25 08:47:48;;;;;;;9.40;1.70;;;10.70;99.90;;;;;;5150388;27;20034;-74
2023/03/25 08:50:14;;;;;;;9.95;2.00;;;10.60;99.90;;;;;;5154722;27;20054;-76
2023/03/25 08:52:40;;;;;;;9.57;1.77;;;10.60;99.90;;;;;;5155373;27;20033;-74
2023/03/25 08:55:07;;;;;;;9.63;1.90;;;10.70;99.90;;;;;;5155187;27;20454;-75
2023/03/25 08:57:36;;;;;;;9.88;1.73;;;10.70;99.90;;;;;;5135881;27;20480;-75
2023/03/25 09:00:15;;;;;;;9.27;1.98;;;10.80;99.90;;;;;;5155695;27;20047;-76
2023/03/25 09:02:41;;;;;;;11.30;1.70;;;10.90;99.90;;;;;;5126576;27;20098;-76
2023/03/25 09:05:09;;;;;;;7.00;1.40;;;11.00;99.90;;;;;;5113338;28;20079;-75
2023/03/25 09:07:35;;;;;;;11.40;2.13;;;11.00;99.90;;;;;;5098971;27;20055;-75
2023/03/25 09:10:02;;;;;;;10.38;2.00;;;11.00;99.90;;;;;;5148876;27;20453;-75
2023/03/25 09:12:28;;;;;;;8.07;1.80;;;10.90;99.90;;;;;;5154581;27;20367;-75
2023/03/25 09:14:54;;;;;;;11.50;2.22;;;10.90;99.90;;;;;;5155470;27;20030;-76
2023/03/25 09:17:19;;;;;;;11.80;1.80;;;10.90;99.90;;;;;;5140855;27;20448;-76
2023/03/25 09:19:46;;;;;;;9.57;1.88;;;11.00;99.90;;;;;;5145165;27;20031;-76
2023/03/25 09:22:12;;;;;;;8.98;2.08;;;11.10;99.90;;;;;;5140509;27;20047;-80
2023/03/25 09:24:39;;;;;;;7.38;1.65;;;11.20;99.90;;;;;;5138474;27;20042;-75
2023/03/25 09:27:05;;;;;;;11.90;1.80;;;11.20;99.90;;;;;;5133908;27;20027;-75
2023/03/25 09:29:31;;;;;;;8.63;1.90;;;11.20;99.90;;;;;;5132464;27;20172;-75
2023/03/25 09:31:59;;;;;;;6.22;1.75;;;11.30;99.90;;;;;;5133447;27;20170;-75
2023/03/25 09:34:26;;;;;;;8.38;1.67;;;11.30;99.90;;;;;;5141664;27;20375;-73
2023/03/25 09:36:53;;;;;;;5.75;1.40;;;11.40;99.90;;;;;;5153416;27;20569;-74
2023/03/25 09:39:19;;;;;;;10.07;1.85;;;11.50;99.90;;;;;;5153113;27;20089;-76
2023/03/25 09:42:16;;;;;;;8.82;1.63;;;11.40;99.90;;;;;;5153441;27;20090;-74
2023/03/25 09:45:09;;;;;;;3.83;1.40;;;11.40;99.90;;;;;;5112126;28;20031;-75
2023/03/25 09:47:35;;;;;;;7.32;1.35;;;11.40;99.90;;;;;;5110889;28;20417;-76
2023/03/25 09:50:09;;;;;;;7.32;1.58;;;11.50;99.90;;;;;;5094158;28;20051;-76
2023/03/25 09:52:47;;;;;;;7.95;1.88;;;11.60;99.90;;;;;;5111703;28;20062;-76
2023/03/25 09:55:20;;;;;;;9.05;1.27;;;11.70;99.90;;;;;;5112333;28;20491;-78
2023/03/25 09:57:48;;;;;;;5.22;1.25;;;11.90;99.90;;;;;;5112767;28;20027;-75
2023/03/25 10:00:24;;;;;;;10.10;1.65;;;11.90;99.90;;;;;;5112218;28;20227;-78
2023/03/25 10:02:57;;;;;;;9.07;1.60;;;11.80;99.90;;;;;;5112608;28;20468;-75
2023/03/25 10:05:28;;;;;;;;;;;11.80;99.90;;;;;;5112809;28;20034;-76
2023/03/25 10:08:29;;;;;;;4.10;1.30;;;11.80;99.90;;;;;;5112494;28;19907;-76
2023/03/25 10:11:10;;;;;;;7.50;1.50;;;11.90;99.90;;;;;;5075662;28;20042;-75
2023/03/25 10:14:03;;;;;;;6.35;1.75;;;11.80;99.90;;;;;;5111413;28;20145;-75
2023/03/25 10:16:59;;;;;;;7.53;1.80;;;12.00;99.90;;;;;;5111793;28;20095;-75
2023/03/25 10:19:36;;;;;;;5.93;1.38;;;12.20;99.90;;;;;;5111658;28;20168;-75
2023/03/25 10:22:05;;;;;;;7.13;1.52;;;12.40;99.90;;;;;;5112101;28;20063;-77
2023/03/25 10:24:40;;;;;;;7.00;1.10;;;12.30;99.90;;;;;;5110822;28;20124;-75
2023/03/25 10:27:37;;;;;;;6.70;1.35;;;12.30;99.90;;;;;;5111724;28;20160;-75
2023/03/25 10:30:14;;;;;;;4.07;1.20;;;12.20;99.90;;;;;;5106074;28;20071;-75
2023/03/25 10:32:49;;;;;;;4.22;1.42;;;12.10;99.90;;;;;;5111315;28;20031;-75
2023/03/25 10:35:20;;;;;;;10.43;1.60;;;12.20;99.90;;;;;;5111855;28;20030;-75
2023/03/25 10:37:48;;;;;;;4.82;1.42;;;12.30;99.90;;;;;;5113010;28;20035;-75
2023/03/25 10:40:20;;;;;;;5.65;1.23;;;12.30;99.90;;;;;;5111639;28;20019;-76
2023/03/25 10:43:13;;;;;;;7.97;1.40;;;12.40;99.90;;;;;;5111764;28;20136;-75
2023/03/25 10:45:41;;;;;;;13.73;1.83;;;12.50;99.90;;;;;;5111346;28;20040;-76
2023/03/25 10:48:12;;;;;;;4.93;1.20;;;12.70;99.90;;;;;;5111591;28;20042;-76
2023/03/25 10:50:40;;;;;;;4.47;1.40;;;12.70;99.90;;;;;;5111439;28;20365;-75
2023/03/25 10:53:17;;;;;;;7.68;1.30;;;12.70;99.90;;;;;;5111690;28;20029;-74
2023/03/25 10:55:44;;;;;;;4.70;1.10;;;12.60;99.90;;;;;;5092869;28;20122;-75
2023/03/25 10:58:16;;;;;;;7.03;1.48;;;12.50;99.90;;;;;;5111689;28;20034;-75
2023/03/25 11:00:42;;;;;;;6.30;1.87;;;12.50;99.90;;;;;;5111171;28;20456;-75
2023/03/25 11:03:16;;;;;;;4.93;1.13;;;12.40;99.90;;;;;;5111253;28;20036;-75
2023/03/25 11:05:44;;;;;;;7.15;1.52;;;12.50;99.90;;;;;;5110241;28;20456;-75
2023/03/25 11:08:10;;;;;;;6.55;1.13;;;12.50;99.90;;;;;;5111361;28;20035;-75
2023/03/25 11:10:36;;;;;;;3.40;1.33;;;12.50;99.90;;;;;;5110695;28;20023;-76
2023/03/25 11:13:06;;;;;;;4.78;1.25;;;12.70;99.90;;;;;;5110947;28;20030;-76
2023/03/25 11:15:40;;;;;;;7.38;1.70;;;12.80;99.90;;;;;;5111035;28;20498;-76
2023/03/25 11:18:37;;;;;;;10.43;1.33;;;12.90;99.90;;;;;;5111379;28;20056;-74
2023/03/25 11:21:12;;;;;;;5.00;1.50;;;12.90;99.90;;;;;;5121570;27;20098;-75
2023/03/25 11:23:47;;;;;;;3.67;1.00;;;12.70;99.90;;;;;;5112639;27;20061;-76
2023/03/25 11:26:48;;;;;;;5.72;1.25;;;12.50;99.90;;;;;;5131218;27;20380;-76
2023/03/25 11:29:18;;;;;;;6.32;1.40;;;12.30;99.90;;;;;;5128523;27;20106;-75
2023/03/25 11:32:03;;;;;;;4.82;1.00;;;12.10;99.90;;;;;;5130968;27;20023;-76
2023/03/25 11:34:30;;;;;;;3.88;1.20;;;12.10;99.90;;;;;;5131094;27;20080;-76
2023/03/25 11:37:14;;;;;;;4.82;1.20;;;12.10;99.90;;;;;;5131630;27;20038;-76
2023/03/25 11:39:42;;;;;;;3.63;1.27;;;12.10;99.90;;;;;;5130905;28;20464;-76
2023/03/25 11:42:16;;;;;;;3.17;0.77;;;12.20;99.90;;;;;;5131589;28;20134;-76
2023/03/25 11:44:50;;;;;;;5.30;1.40;;;12.30;99.90;;;;;;5112254;28;20015;-76
2023/03/25 11:47:24;;;;;;;4.20;0.90;;;12.40;99.90;;;;;;5131314;28;20047;-76
2023/03/25 11:49:52;;;;;;;7.07;1.13;;;12.60;99.90;;;;;;5131331;28;20380;-76
2023/03/25 11:52:25;;;;;;;5.57;0.98;;;12.70;99.90;;;;;;5113088;28;20031;-76
2023/03/25 11:54:55;;;;;;;6.50;1.33;;;12.90;99.90;;;;;;5131787;28;20028;-76
2023/03/25 11:57:26;;;;;;;5.00;0.90;;;13.10;99.90;;;;;;5131569;28;20039;-77
2023/03/25 12:00:11;;;;;;;4.65;1.15;;;13.30;99.90;;;;;;5131508;28;20415;-76
2023/03/25 12:02:39;;;;;;;3.15;0.82;;;13.30;99.90;;;;;;5130953;28;20124;-76
2023/03/25 12:05:07;;;;;;;5.20;1.10;;;13.10;99.90;;;;;;5131343;28;20380;-76
2023/03/25 12:08:08;;;;;;;4.72;1.02;;;13.00;99.90;;;;;;5130597;28;20454;-76
2023/03/25 12:10:47;;;;;;;5.40;1.13;;;13.20;99.90;;;;;;5103641;28;20063;-76
2023/03/25 12:13:28;;;;;;;4.57;1.10;;;13.40;99.90;;;;;;5131310;28;20049;-75
2023/03/25 12:16:01;;;;;;;4.97;1.60;;;13.60;99.90;;;;;;5131573;27;20023;-75
2023/03/25 12:18:55;;;;;;;3.90;1.20;;;13.80;99.90;;;;;;5134271;27;20019;-75
2023/03/25 12:21:45;;;;;;;4.75;1.35;;;13.70;99.90;;;;;;5135481;27;20031;-76
2023/03/25 12:24:14;;;;;;;4.72;0.93;;;13.60;99.90;;;;;;5135640;27;20024;-75
2023/03/25 12:27:06;;;;;;;2.70;0.98;;;13.40;99.90;;;;;;5116240;27;20031;-76
2023/03/25 12:29:41;;;;;;;6.10;1.20;;;13.30;99.90;;;;;;5134795;27;20088;-76
2023/03/25 12:32:10;;;;;;;8.02;1.20;;;13.30;99.90;;;;;;5135344;27;20023;-75
2023/03/25 12:35:00;;;;;;;3.42;1.23;;;13.30;99.90;;;;;;5115692;27;20444;-76
2023/03/25 12:37:56;;;;;;;4.85;1.27;;;13.20;99.90;;;;;;5134680;27;20148;-79
2023/03/25 12:40:43;;;;;;;1.98;0.77;;;13.20;99.90;;;;;;5134727;27;20051;-75
2023/03/25 12:43:28;;;;;;;6.15;0.70;;;13.00;99.90;;;;;;5134033;27;20173;-77
2023/03/25 12:46:00;;;;;;;3.90;1.17;;;12.70;99.90;;;;;;5131517;27;20046;-77
2023/03/25 12:48:55;;;;;;;5.30;0.80;;;12.40;99.90;;;;;;5134223;27;20019;-81
2023/03/25 12:51:39;;;;;;;2.28;0.60;;;12.50;99.90;;;;;;5134589;27;20027;-77
2023/03/25 12:54:25;;;;;;;6.90;0.98;;;12.60;99.90;;;;;;5134473;27;20474;-76
2023/03/25 12:56:54;;;;;;;4.35;0.90;;;12.70;99.90;;;;;;5115961;27;20023;-76
2023/03/25 12:59:42;;;;;;;2.67;1.15;;;12.70;99.90;;;;;;5134105;27;20027;-77
2023/03/25 13:02:17;;;;;;;2.78;1.00;;;12.80;99.90;;;;;;5134094;27;20023;-76
2023/03/25 13:05:14;;;;;;;5.25;1.30;;;12.90;99.90;;;;;;5133874;27;20122;-77
2023/03/25 13:07:49;;;;;;;5.82;1.05;;;12.90;99.90;;;;;;5134526;27;20177;-75
2023/03/25 13:10:27;;;;;;;5.35;1.10;;;13.00;99.90;;;;;;5134266;27;20431;-75
2023/03/25 13:12:57;;;;;;;5.32;1.00;;;13.00;99.90;;;;;;5133882;27;20023;-75
2023/03/25 13:15:31;;;;;;;5.18;1.45;;;13.10;99.90;;;;;;5134389;27;20106;-76